Time;durP1;ratioP1;P1;durP2;ratioP2;P2;SDS_P1;SDS_P2;PMS_P1;PMS_P2;Temp;Humidity;BMP_temperature;BMP_pressure;BME280_temperature;BME280_humidity;BME280_pressure;Samples;Min_cycle;Max_cycle;Signal;HPM_P1;HPM_P2
2023/03/20 00:01:25;;;;;;;3.23;2.87;;;17.80;62.40;18.90;101110.00;;;;5019371;28;20211;-44
2023/03/20 00:03:51;;;;;;;3.10;2.80;;;17.80;62.50;18.90;101115.00;;;;5026751;28;20199;-44
2023/03/20 00:06:21;;;;;;;2.63;2.43;;;17.80;62.40;18.90;101118.00;;;;5015793;28;20175;-43
2023/03/20 00:08:48;;;;;;;2.70;2.50;;;17.80;62.50;18.90;101109.00;;;;5013902;28;20187;-43
2023/03/20 00:11:27;;;;;;;3.00;2.70;;;17.80;62.50;18.90;101107.00;;;;5012427;28;20606;-44
2023/03/20 00:13:58;;;;;;;3.30;2.57;;;17.80;62.50;18.90;101107.00;;;;5012761;28;20568;-44
2023/03/20 00:16:28;;;;;;;3.00;2.50;;;17.70;62.40;18.90;101118.00;;;;5010713;28;20208;-44
2023/03/20 00:18:55;;;;;;;2.83;2.63;;;17.80;62.50;18.90;101118.00;;;;5010361;28;20187;-43
2023/03/20 00:21:20;;;;;;;3.17;2.43;;;17.70;62.30;18.90;101122.00;;;;5011650;28;20183;-44
2023/03/20 00:23:46;;;;;;;2.67;2.47;;;17.80;62.50;18.90;101124.00;;;;5011903;28;20715;-43
2023/03/20 00:26:17;;;;;;;2.80;2.60;;;17.80;62.50;18.90;101131.00;;;;5011275;28;20314;-43
2023/03/20 00:28:47;;;;;;;2.87;2.50;;;17.70;62.40;18.80;101133.00;;;;5010469;28;20239;-44
2023/03/20 00:31:26;;;;;;;2.67;2.47;;;17.70;62.50;18.80;101128.00;;;;5009875;28;20572;-44
2023/03/20 00:33:53;;;;;;;2.50;2.30;;;17.70;62.50;18.80;101126.00;;;;5009913;28;20203;-43
2023/03/20 00:36:19;;;;;;;2.80;2.60;;;17.70;62.50;18.80;101143.00;;;;5010787;28;20217;-43
2023/03/20 00:38:45;;;;;;;3.77;2.60;;;17.70;62.50;18.80;101135.00;;;;5010791;28;20195;-44
2023/03/20 00:41:30;;;;;;;3.50;2.43;;;17.70;62.60;18.80;101140.00;;;;5010861;28;20282;-43
2023/03/20 00:44:37;;;;;;;2.57;2.37;;;17.70;62.50;18.80;101134.00;;;;5009846;28;20178;-43
2023/03/20 00:47:23;;;;;;;2.50;2.30;;;17.70;62.50;18.80;101142.00;;;;5011442;28;20649;-43
2023/03/20 00:49:50;;;;;;;2.67;2.47;;;17.60;62.50;18.70;101137.00;;;;5011394;28;20195;-44
2023/03/20 00:52:17;;;;;;;2.70;2.50;;;17.60;62.50;18.70;101139.00;;;;5011190;28;20183;-43
2023/03/20 00:54:43;;;;;;;2.73;2.40;;;17.60;62.50;18.70;101147.00;;;;5009797;28;20261;-44
2023/03/20 00:57:20;;;;;;;2.40;2.20;;;17.60;62.50;18.70;101154.00;;;;5010740;28;20679;-43
2023/03/20 00:59:55;;;;;;;2.50;2.30;;;17.60;62.50;18.70;101146.00;;;;5011535;28;20778;-43
2023/03/20 01:02:22;;;;;;;2.57;2.37;;;17.60;62.50;18.70;101148.00;;;;5009674;28;20181;-44
2023/03/20 01:04:48;;;;;;;2.60;2.40;;;17.60;62.50;18.70;101141.00;;;;5014067;28;20262;-43
2023/03/20 01:07:15;;;;;;;2.83;2.40;;;17.50;62.40;18.70;101141.00;;;;5015875;28;20724;-44
2023/03/20 01:09:41;;;;;;;2.70;2.50;;;17.60;62.50;18.70;101134.00;;;;5015189;28;20230;-44
2023/03/20 01:12:06;;;;;;;2.27;2.17;;;17.50;62.40;18.70;101139.00;;;;5010863;28;20180;-43
2023/03/20 01:14:32;;;;;;;2.57;2.37;;;17.60;62.50;18.60;101131.00;;;;5010423;28;20211;-43
2023/03/20 01:16:58;;;;;;;2.97;2.43;;;17.50;62.40;18.60;101133.00;;;;5010375;28;20230;-43
2023/03/20 01:19:24;;;;;;;2.57;2.37;;;17.50;62.40;18.60;101125.00;;;;5010351;28;20762;-43
2023/03/20 01:21:50;;;;;;;2.73;2.50;;;17.50;62.40;18.60;101125.00;;;;5010017;28;20223;-43
2023/03/20 01:24:15;;;;;;;2.60;2.40;;;17.50;62.40;18.60;101122.00;;;;5009883;28;20184;-43
2023/03/20 01:26:42;;;;;;;2.47;2.27;;;17.50;62.50;18.60;101120.00;;;;5010118;28;20261;-43
2023/03/20 01:29:24;;;;;;;2.97;2.67;;;17.50;62.50;18.60;101123.00;;;;5009873;28;20201;-44
2023/03/20 01:31:50;;;;;;;2.50;2.30;;;17.50;62.50;18.60;101119.00;;;;5008749;28;20266;-43
2023/03/20 01:34:16;;;;;;;2.60;2.40;;;17.50;62.60;18.60;101130.00;;;;5010074;28;20183;-43
2023/03/20 01:36:51;;;;;;;2.40;2.20;;;17.40;62.50;18.60;101137.00;;;;5010137;28;20649;-44
2023/03/20 01:39:17;;;;;;;2.60;2.40;;;17.40;62.50;18.60;101144.00;;;;5008554;28;20208;-44
2023/03/20 01:41:44;;;;;;;2.53;2.23;;;17.40;62.50;18.60;101126.00;;;;5008940;28;20186;-43
2023/03/20 01:44:27;;;;;;;2.43;2.23;;;17.40;63.30;18.50;101118.00;;;;5009902;28;20206;-43
2023/03/20 01:46:53;;;;;;;2.87;2.40;;;17.40;62.60;18.50;101126.00;;;;5009837;28;20621;-43
2023/03/20 01:49:18;;;;;;;2.63;2.43;;;17.40;62.50;18.50;101122.00;;;;5007596;28;20210;-44
2023/03/20 01:51:44;;;;;;;2.60;2.40;;;17.40;62.60;18.50;101108.00;;;;5009406;28;20187;-43
2023/03/20 01:54:16;;;;;;;2.50;2.30;;;17.40;62.50;18.50;101105.00;;;;5009675;28;20681;-44
2023/03/20 01:56:49;;;;;;;2.40;2.20;;;17.40;62.60;18.50;101116.00;;;;5008334;28;20293;-45
2023/03/20 01:59:30;;;;;;;2.40;2.20;;;17.40;62.60;18.30;101111.00;;;;5008156;28;20208;-44
2023/03/20 02:01:56;;;;;;;2.47;2.27;;;17.40;62.70;18.30;101108.00;;;;5008145;28;20220;-43
2023/03/20 02:04:32;;;;;;;2.43;2.23;;;17.40;62.70;18.50;101117.00;;;;5008119;28;20175;-43
2023/03/20 02:06:59;;;;;;;2.50;2.30;;;17.30;63.30;18.50;101117.00;;;;5008312;28;20183;-43
2023/03/20 02:09:25;;;;;;;2.30;2.10;;;17.30;62.60;18.50;101112.00;;;;5007862;28;20265;-44
2023/03/20 02:11:50;;;;;;;2.87;2.33;;;17.30;62.60;18.50;101103.00;;;;5009471;28;20918;-44
2023/03/20 02:14:16;;;;;;;2.53;2.33;;;17.30;62.60;18.40;101114.00;;;;5008040;28;20188;-43
2023/03/20 02:16:42;;;;;;;2.40;2.20;;;17.30;62.70;18.40;101120.00;;;;5008053;28;20204;-44
2023/03/20 02:19:39;;;;;;;2.30;2.10;;;17.30;62.60;18.40;101113.00;;;;5009313;28;20202;-44
2023/03/20 02:22:34;;;;;;;2.40;2.20;;;17.30;62.60;18.40;101123.00;;;;5007489;28;20191;-43
2023/03/20 02:25:26;;;;;;;2.17;2.00;;;17.30;62.70;18.40;101126.00;;;;5008048;28;20722;-44
2023/03/20 02:28:07;;;;;;;2.50;2.27;;;17.30;62.70;18.40;101121.00;;;;5007936;28;20175;-44
2023/03/20 02:30:55;;;;;;;2.40;2.20;;;17.30;62.70;18.40;101128.00;;;;5008985;28;20246;-44
2023/03/20 02:33:38;;;;;;;2.10;2.00;;;17.20;62.60;18.30;101128.00;;;;5008321;28;20244;-43
2023/03/20 02:36:26;;;;;;;2.40;2.20;;;17.20;62.60;18.30;101106.00;;;;5009766;28;20185;-42
2023/03/20 02:39:38;;;;;;;2.40;2.20;;;17.20;62.60;18.30;101105.00;;;;5012436;28;20196;-43
2023/03/20 02:42:18;;;;;;;2.87;2.23;;;17.30;62.70;18.30;101108.00;;;;5009775;28;20179;-45
2023/03/20 02:44:50;;;;;;;2.23;2.03;;;17.30;62.70;18.30;101108.00;;;;5008168;28;20169;-43
2023/03/20 02:47:30;;;;;;;2.53;2.33;;;17.20;62.60;18.30;101115.00;;;;5009291;28;20273;-43
2023/03/20 02:50:24;;;;;;;2.30;2.10;;;17.20;62.60;18.30;101119.00;;;;5007506;28;20770;-43
2023/03/20 02:53:11;;;;;;;2.40;2.20;;;17.20;62.60;18.30;101114.00;;;;5007525;28;20179;-44
2023/03/20 02:55:54;;;;;;;2.37;2.17;;;17.20;62.70;18.30;101116.00;;;;5008657;28;20636;-43
2023/03/20 02:58:32;;;;;;;2.27;2.07;;;17.20;62.70;18.30;101122.00;;;;5007589;28;20185;-43
2023/03/20 03:01:01;;;;;;;2.23;2.03;;;17.20;62.70;18.20;101131.00;;;;5009309;28;20186;-44
2023/03/20 03:03:33;;;;;;;2.50;2.30;;;17.10;62.60;18.20;101142.00;;;;5011940;28;20239;-44
2023/03/20 03:06:09;;;;;;;2.37;2.17;;;17.20;62.70;18.20;101143.00;;;;5011943;28;20179;-43
2023/03/20 03:08:41;;;;;;;2.30;2.10;;;17.20;62.70;18.20;101141.00;;;;5026070;28;20211;-45
2023/03/20 03:11:07;;;;;;;2.30;2.10;;;17.20;62.70;18.20;101142.00;;;;5024853;28;20292;-44
2023/03/20 03:13:41;;;;;;;2.23;2.03;;;17.10;62.60;18.20;101130.00;;;;5018149;28;20189;-44
2023/03/20 03:16:15;;;;;;;2.40;2.20;;;17.10;62.60;18.20;101143.00;;;;5012755;28;20204;-43
2023/03/20 03:18:41;;;;;;;2.47;2.20;;;17.20;62.60;18.20;101141.00;;;;5012325;28;20196;-44
2023/03/20 03:21:07;;;;;;;2.00;1.90;;;17.10;62.50;18.20;101138.00;;;;5011867;28;20180;-45
2023/03/20 03:23:45;;;;;;;2.30;2.20;;;17.10;62.50;18.20;101137.00;;;;5011712;28;20190;-45
2023/03/20 03:26:20;;;;;;;2.47;2.27;;;17.10;62.60;18.20;101141.00;;;;5011521;28;20534;-44
2023/03/20 03:28:53;;;;;;;2.20;2.10;;;17.10;62.60;18.20;101150.00;;;;5011436;28;20807;-43
2023/03/20 03:31:19;;;;;;;2.50;2.30;;;17.10;62.70;18.20;101148.00;;;;5011125;28;20189;-44
2023/03/20 03:33:47;;;;;;;2.10;2.00;;;17.10;62.70;18.20;101122.00;;;;5011304;28;20179;-43
2023/03/20 03:36:29;;;;;;;2.20;2.10;;;17.00;62.60;18.20;101110.00;;;;5011271;28;20190;-43
2023/03/20 03:39:12;;;;;;;2.17;2.03;;;17.00;62.60;18.10;101092.00;;;;5011246;28;20199;-43
2023/03/20 03:41:49;;;;;;;2.03;1.93;;;17.00;62.70;18.10;101095.00;;;;5010983;28;20179;-43
2023/03/20 03:44:52;;;;;;;2.17;2.00;;;17.00;62.60;18.10;101099.00;;;;5011043;28;20585;-43
2023/03/20 03:47:24;;;;;;;2.30;2.10;;;17.00;62.60;18.10;101100.00;;;;5011017;28;20210;-43
2023/03/20 03:49:56;;;;;;;2.30;2.10;;;17.00;62.60;18.10;101090.00;;;;5010746;28;20199;-43
2023/03/20 03:52:23;;;;;;;2.10;2.00;;;17.00;62.60;18.10;101085.00;;;;5010843;28;20210;-44
2023/03/20 03:54:53;;;;;;;2.13;2.00;;;17.00;62.60;18.10;101083.00;;;;5010745;28;20185;-44
2023/03/20 03:57:24;;;;;;;2.40;2.20;;;17.00;62.60;18.10;101105.00;;;;5010528;28;20294;-43
2023/03/20 03:59:50;;;;;;;2.37;2.20;;;17.00;62.60;18.10;101111.00;;;;5010715;28;20284;-44
2023/03/20 04:02:16;;;;;;;2.10;2.00;;;17.00;62.70;18.10;101111.00;;;;5010856;28;20275;-44
2023/03/20 04:04:44;;;;;;;2.07;1.97;;;17.00;62.70;18.00;101085.00;;;;5011820;28;20193;-43
2023/03/20 04:07:11;;;;;;;2.10;2.00;;;17.00;62.70;18.10;101118.00;;;;5010785;28;20223;-43
2023/03/20 04:09:36;;;;;;;2.20;2.10;;;17.00;62.60;18.00;101123.00;;;;5010934;28;20202;-44
2023/03/20 04:12:02;;;;;;;2.10;2.00;;;17.00;62.60;18.00;101137.00;;;;5010257;28;20256;-43
2023/03/20 04:14:28;;;;;;;2.13;2.03;;;16.90;62.50;18.00;101131.00;;;;5026179;28;20186;-44
2023/03/20 04:16:54;;;;;;;2.30;2.20;;;17.00;62.60;18.00;101128.00;;;;5010904;28;20207;-43
2023/03/20 04:19:19;;;;;;;2.40;2.20;;;16.90;63.30;18.00;101136.00;;;;5011000;28;20348;-44
2023/03/20 04:21:45;;;;;;;2.23;2.10;;;16.90;62.50;18.00;101138.00;;;;5010909;28;20238;-42
2023/03/20 04:24:11;;;;;;;2.13;2.03;;;16.90;62.50;18.00;101142.00;;;;5010778;28;20208;-43
2023/03/20 04:26:38;;;;;;;2.20;2.10;;;16.90;62.50;18.00;101138.00;;;;5011413;28;20182;-43
2023/03/20 04:29:04;;;;;;;2.10;2.00;;;16.90;62.50;18.00;101134.00;;;;5011028;28;20676;-43
2023/03/20 04:31:30;;;;;;;2.30;2.10;;;16.90;62.50;18.00;101140.00;;;;5007506;28;20195;-43
2023/03/20 04:33:55;;;;;;;2.50;2.30;;;16.90;62.50;18.00;101140.00;;;;5005337;28;20189;-43
2023/03/20 04:36:21;;;;;;;4.53;2.20;;;16.90;62.70;18.00;101129.00;;;;5009143;28;20202;-43
2023/03/20 04:38:47;;;;;;;2.50;2.30;;;16.90;62.90;18.00;101126.00;;;;5010338;28;20208;-43
2023/03/20 04:41:13;;;;;;;2.37;2.17;;;16.90;63.40;18.00;101120.00;;;;5006061;28;20184;-43
2023/03/20 04:43:39;;;;;;;2.83;2.23;;;16.90;62.90;18.00;101108.00;;;;5004641;28;20190;-43
2023/03/20 04:46:05;;;;;;;3.87;2.20;;;16.90;62.80;17.90;101108.00;;;;5006962;28;20190;-43
2023/03/20 04:48:31;;;;;;;5.70;2.10;;;16.90;62.60;17.90;101104.00;;;;5011646;28;20186;-43
2023/03/20 04:50:56;;;;;;;4.43;2.30;;;16.90;62.60;18.00;101117.00;;;;5011316;28;20210;-43
2023/03/20 04:53:22;;;;;;;2.23;2.10;;;16.90;62.70;17.90;101109.00;;;;5011133;28;20323;-43
2023/03/20 04:55:49;;;;;;;3.03;2.50;;;16.90;62.70;17.90;101112.00;;;;5011317;28;20216;-43
2023/03/20 04:58:15;;;;;;;2.63;2.43;;;16.80;62.50;17.90;101108.00;;;;5009958;28;20217;-44
2023/03/20 05:00:42;;;;;;;3.00;2.70;;;16.90;62.70;17.90;101108.00;;;;5011225;28;20209;-43
2023/03/20 05:03:07;;;;;;;3.03;2.73;;;16.80;62.50;17.90;101110.00;;;;5010983;28;20177;-43
2023/03/20 05:05:36;;;;;;;3.60;2.70;;;16.80;62.40;17.90;101107.00;;;;5011448;28;20179;-43
2023/03/20 05:08:04;;;;;;;3.03;2.73;;;16.80;62.40;17.90;101036.00;;;;5011193;28;20185;-43
2023/03/20 05:10:30;;;;;;;3.57;2.80;;;16.80;62.40;17.90;101095.00;;;;5011163;28;20201;-43
2023/03/20 05:12:56;;;;;;;3.90;3.00;;;16.80;62.40;17.90;101090.00;;;;5011618;28;20227;-44
2023/03/20 05:15:21;;;;;;;3.30;3.00;;;16.80;62.40;17.90;101089.00;;;;5016437;28;20191;-43
2023/03/20 05:17:48;;;;;;;3.90;2.90;;;16.70;62.20;17.90;101090.00;;;;5015640;28;20206;-43
2023/03/20 05:20:14;;;;;;;5.50;3.40;;;16.80;62.40;17.90;101086.00;;;;5015065;28;20194;-43
2023/03/20 05:22:40;;;;;;;5.73;3.13;;;16.70;62.30;17.90;101094.00;;;;5003120;28;20186;-43
2023/03/20 05:25:06;;;;;;;4.57;3.47;;;16.80;62.30;17.80;101085.00;;;;5001695;28;20194;-42
2023/03/20 05:27:32;;;;;;;3.83;3.10;;;16.70;62.10;17.80;101078.00;;;;5003833;28;20208;-43
2023/03/20 05:29:57;;;;;;;3.97;3.50;;;16.80;62.30;17.80;101102.00;;;;5004656;28;20240;-43
2023/03/20 05:32:23;;;;;;;4.60;3.57;;;16.70;62.10;17.80;101093.00;;;;5009491;28;20214;-43
2023/03/20 05:34:49;;;;;;;7.73;3.93;;;16.70;62.00;17.80;101089.00;;;;5010408;28;20284;-43
2023/03/20 05:37:15;;;;;;;6.90;3.60;;;16.70;62.00;17.80;101101.00;;;;5006798;28;20594;-43
2023/03/20 05:39:40;;;;;;;8.60;4.10;;;16.70;62.00;17.80;101112.00;;;;5004428;28;20204;-43
2023/03/20 05:42:06;;;;;;;8.20;3.77;;;16.70;62.00;17.80;101120.00;;;;5001253;28;20193;-43
2023/03/20 05:44:32;;;;;;;6.43;3.97;;;16.70;62.80;17.80;101125.00;;;;5007092;28;20250;-43
2023/03/20 05:46:58;;;;;;;3.90;3.50;;;16.70;62.00;17.80;101117.00;;;;5009939;28;20847;-42
2023/03/20 05:49:23;;;;;;;7.03;4.20;;;16.70;62.00;17.80;101128.00;;;;5003976;28;20283;-43
2023/03/20 05:51:49;;;;;;;7.17;3.77;;;16.60;62.00;17.70;101132.00;;;;5010924;28;20602;-43
2023/03/20 05:54:15;;;;;;;4.43;3.53;;;16.60;61.90;17.70;101127.00;;;;5008293;28;20555;-43
2023/03/20 05:56:41;;;;;;;5.83;3.90;;;16.60;61.90;17.70;101130.00;;;;5009923;28;20214;-43
2023/03/20 05:59:06;;;;;;;6.57;3.70;;;16.60;61.90;17.70;101127.00;;;;5008153;28;20202;-43
2023/03/20 06:01:32;;;;;;;4.43;3.63;;;16.60;61.90;17.70;101125.00;;;;5008104;28;20728;-43
2023/03/20 06:03:58;;;;;;;6.77;3.67;;;16.60;61.90;17.70;101124.00;;;;5008246;28;20286;-42
2023/03/20 06:06:23;;;;;;;6.23;4.07;;;16.60;61.90;17.70;101113.00;;;;5009313;28;20191;-43
2023/03/20 06:08:49;;;;;;;5.33;3.90;;;16.60;61.90;17.70;101121.00;;;;5009116;28;20364;-43
2023/03/20 06:11:15;;;;;;;8.67;4.00;;;16.60;62.10;17.70;101125.00;;;;5009361;28;20187;-43
2023/03/20 06:13:41;;;;;;;5.43;3.90;;;16.60;62.20;17.70;101119.00;;;;5009517;28;20186;-44
2023/03/20 06:16:07;;;;;;;6.30;3.80;;;16.60;62.20;17.70;101117.00;;;;5009309;28;20182;-44
2023/03/20 06:18:33;;;;;;;5.63;3.30;;;16.60;62.20;17.70;101128.00;;;;5008597;28;20819;-44
2023/03/20 06:20:59;;;;;;;4.47;3.70;;;16.50;62.30;17.70;101117.00;;;;5009193;28;20178;-43
2023/03/20 06:23:24;;;;;;;3.90;3.60;;;16.60;62.40;17.70;101128.00;;;;5009019;28;20194;-43
2023/03/20 06:25:50;;;;;;;4.50;3.57;;;16.60;62.30;17.70;101129.00;;;;5009878;28;20676;-43
2023/03/20 06:28:16;;;;;;;4.17;3.77;;;16.60;62.30;17.60;101128.00;;;;5007952;28;20186;-43
2023/03/20 06:30:43;;;;;;;4.57;3.33;;;16.60;62.30;17.60;101121.00;;;;5008847;28;20205;-43
2023/03/20 06:33:08;;;;;;;3.60;3.30;;;16.60;62.30;17.60;101151.00;;;;5008766;28;20265;-43
2023/03/20 06:35:34;;;;;;;3.40;3.10;;;16.60;62.30;17.60;101134.00;;;;5008652;28;20614;-43
2023/03/20 06:38:01;;;;;;;4.63;3.37;;;16.60;62.30;17.60;101123.00;;;;5008181;28;20209;-42
2023/03/20 06:40:27;;;;;;;3.50;3.20;;;16.60;62.20;17.60;101116.00;;;;5008960;28;20685;-43
2023/03/20 06:42:53;;;;;;;3.33;3.03;;;16.50;62.10;17.60;101107.00;;;;5007429;28;20180;-43
2023/03/20 06:45:20;;;;;;;4.33;3.03;;;16.50;62.10;17.60;101117.00;;;;5009191;28;20680;-43
2023/03/20 06:47:46;;;;;;;6.27;3.53;;;16.50;62.10;17.60;101126.00;;;;5009419;28;20177;-43
2023/03/20 06:50:11;;;;;;;4.07;3.20;;;16.50;62.10;17.60;101125.00;;;;5008505;28;20201;-43
2023/03/20 06:52:38;;;;;;;3.67;3.17;;;16.50;62.10;17.60;101131.00;;;;5008918;28;20184;-43
2023/03/20 06:55:05;;;;;;;3.20;2.90;;;16.50;62.10;17.60;101138.00;;;;5008976;28;20179;-43
2023/03/20 06:57:31;;;;;;;3.30;3.00;;;16.50;62.10;17.60;101137.00;;;;5008655;28;20692;-42
2023/03/20 06:59:57;;;;;;;3.93;3.03;;;16.50;62.10;17.60;101142.00;;;;5008540;28;20202;-42
2023/03/20 07:02:24;;;;;;;3.67;2.80;;;16.50;62.20;17.60;101146.00;;;;5007423;28;20328;-43
2023/03/20 07:04:50;;;;;;;3.90;2.60;;;16.50;62.20;17.60;101158.00;;;;5007730;28;20527;-43
2023/03/20 07:07:16;;;;;;;3.13;2.83;;;16.50;62.20;17.50;101170.00;;;;5008253;28;20210;-42
2023/03/20 07:09:42;;;;;;;3.00;2.70;;;16.50;62.20;17.60;101167.00;;;;5008442;28;20748;-44
2023/03/20 07:12:15;;;;;;;3.43;2.47;;;16.50;62.10;17.50;101169.00;;;;5008477;28;20179;-44
2023/03/20 07:14:41;;;;;;;3.00;2.70;;;16.40;62.00;17.50;101170.00;;;;5008993;28;20183;-43
2023/03/20 07:17:08;;;;;;;2.90;2.53;;;16.40;62.00;17.50;101174.00;;;;5009029;28;20233;-43
2023/03/20 07:19:35;;;;;;;3.30;2.80;;;16.40;62.00;17.50;101175.00;;;;5007878;28;20809;-43
2023/03/20 07:22:02;;;;;;;3.00;2.70;;;16.40;62.00;17.50;101179.00;;;;5010003;28;20228;-42
2023/03/20 07:24:28;;;;;;;2.80;2.60;;;16.40;62.00;17.50;101186.00;;;;5010597;28;20199;-44
2023/03/20 07:26:54;;;;;;;2.70;2.50;;;16.40;62.10;17.50;101187.00;;;;5009509;28;20192;-44
2023/03/20 07:29:19;;;;;;;2.63;2.43;;;16.40;62.00;17.50;101179.00;;;;5008729;28;20293;-44
2023/03/20 07:31:45;;;;;;;3.07;2.67;;;16.40;62.00;17.50;101171.00;;;;5008246;28;20214;-44
2023/03/20 07:34:11;;;;;;;3.00;2.70;;;16.40;62.00;17.50;101182.00;;;;5008978;28;20241;-44
2023/03/20 07:36:37;;;;;;;2.40;2.20;;;16.40;62.10;17.50;101174.00;;;;5008675;28;20212;-44
2023/03/20 07:39:03;;;;;;;3.00;2.60;;;16.40;62.10;17.50;101172.00;;;;5008662;28;20201;-43
2023/03/20 07:41:29;;;;;;;2.60;2.40;;;16.40;62.10;17.50;101174.00;;;;5008431;28;20193;-43
2023/03/20 07:43:55;;;;;;;2.80;2.50;;;16.30;62.00;17.40;101185.00;;;;5008702;28;20178;-43
2023/03/20 07:46:21;;;;;;;3.53;2.63;;;16.40;62.10;17.50;101178.00;;;;5008379;28;20189;-43
2023/03/20 07:48:46;;;;;;;2.57;2.37;;;16.30;62.10;17.40;101178.00;;;;5011149;28;20200;-43
2023/03/20 07:51:12;;;;;;;2.60;2.40;;;16.40;62.20;17.40;101176.00;;;;5011772;28;20192;-43
2023/03/20 07:53:38;;;;;;;2.63;2.43;;;16.40;62.20;17.40;101188.00;;;;5012011;28;20185;-43
2023/03/20 07:56:04;;;;;;;2.83;2.30;;;16.40;62.20;17.40;101192.00;;;;5012741;28;20572;-43
2023/03/20 07:58:30;;;;;;;3.63;2.50;;;16.30;62.00;17.40;101186.00;;;;5012001;28;20203;-43
2023/03/20 08:00:57;;;;;;;2.40;2.20;;;16.30;62.00;17.40;101190.00;;;;5011216;28;20541;-42
2023/03/20 08:03:23;;;;;;;3.03;2.50;;;16.30;61.90;17.40;101201.00;;;;5010365;28;20646;-43
2023/03/20 08:05:48;;;;;;;2.60;2.40;;;16.30;61.90;17.40;101206.00;;;;5011804;28;20231;-43
2023/03/20 08:08:14;;;;;;;2.83;2.40;;;16.30;62.10;17.40;101206.00;;;;5011456;28;20264;-42
2023/03/20 08:10:40;;;;;;;2.97;2.77;;;16.30;62.00;17.40;101209.00;;;;5012690;28;20197;-44
2023/03/20 08:13:06;;;;;;;2.70;2.50;;;16.30;62.00;17.40;101216.00;;;;5011083;28;20250;-43
2023/03/20 08:15:31;;;;;;;2.67;2.47;;;16.30;62.00;17.40;101212.00;;;;5012645;28;20608;-43
2023/03/20 08:17:57;;;;;;;2.70;2.50;;;16.30;62.10;17.40;101212.00;;;;5012319;28;20228;-44
2023/03/20 08:20:23;;;;;;;3.10;2.40;;;16.30;62.00;17.30;101204.00;;;;5012244;28;20211;-43
2023/03/20 08:22:49;;;;;;;2.50;2.30;;;16.30;62.00;17.30;101215.00;;;;5011105;28;20192;-43
2023/03/20 08:25:15;;;;;;;2.60;2.40;;;16.30;62.00;17.30;101206.00;;;;5012171;28;20188;-43
2023/03/20 08:27:41;;;;;;;2.40;2.20;;;16.30;62.00;17.30;101208.00;;;;5011133;28;20376;-43
2023/03/20 08:30:08;;;;;;;2.30;2.10;;;16.20;62.00;17.30;101210.00;;;;5011694;28;20207;-43
2023/03/20 08:32:34;;;;;;;2.80;2.50;;;16.30;62.10;17.30;101214.00;;;;5009521;28;20581;-43
2023/03/20 08:35:00;;;;;;;2.50;2.30;;;16.20;62.20;17.30;101215.00;;;;5009698;28;20197;-43
2023/03/20 08:37:26;;;;;;;2.40;2.20;;;16.30;62.50;17.30;101218.00;;;;5018603;28;20201;-43
2023/03/20 08:39:52;;;;;;;2.60;2.40;;;16.30;62.40;17.30;101224.00;;;;5011559;28;20191;-43
2023/03/20 08:42:18;;;;;;;2.43;2.23;;;16.20;62.70;17.30;101221.00;;;;5011127;28;20206;-43
2023/03/20 08:44:44;;;;;;;2.50;2.30;;;16.30;62.70;17.30;101224.00;;;;5011484;28;20662;-43
2023/03/20 08:47:10;;;;;;;3.33;2.33;;;16.30;62.70;17.30;101219.00;;;;5011668;28;20186;-43
2023/03/20 08:49:36;;;;;;;3.70;2.23;;;16.40;62.90;17.30;101220.00;;;;5011083;28;20200;-44
2023/03/20 08:52:02;;;;;;;3.40;2.30;;;16.50;63.00;17.30;101223.00;;;;5014320;28;20184;-43
2023/03/20 08:54:28;;;;;;;2.87;2.40;;;16.50;63.00;17.30;101216.00;;;;5012714;28;20221;-44
2023/03/20 08:56:54;;;;;;;2.27;2.03;;;16.50;63.10;17.40;101222.00;;;;5010831;28;20300;-44
2023/03/20 08:59:20;;;;;;;3.00;2.33;;;16.60;63.10;17.40;101221.00;;;;5010359;28;20287;-44
2023/03/20 09:01:46;;;;;;;2.47;2.27;;;16.70;64.00;17.50;101218.00;;;;5010713;28;20178;-44
2023/03/20 09:04:12;;;;;;;2.23;2.03;;;16.80;63.30;17.50;101219.00;;;;5011154;28;20563;-44
2023/03/20 09:06:38;;;;;;;3.53;2.27;;;16.90;63.20;17.60;101224.00;;;;5010899;28;20651;-44
2023/03/20 09:09:04;;;;;;;2.30;2.00;;;16.90;63.00;17.60;101215.00;;;;5010581;28;20568;-44
2023/03/20 09:11:31;;;;;;;2.27;2.07;;;17.00;63.10;17.70;101218.00;;;;5017417;28;20177;-43
2023/03/20 09:13:58;;;;;;;3.63;2.10;;;17.00;63.00;17.70;101229.00;;;;5016576;28;20180;-44
2023/03/20 09:16:24;;;;;;;2.40;2.10;;;17.20;63.30;17.80;101233.00;;;;5005673;28;20853;-45
2023/03/20 09:18:50;;;;;;;2.70;1.80;;;17.20;63.40;17.90;101234.00;;;;5002464;28;20204;-44
2023/03/20 09:21:15;;;;;;;5.13;2.07;;;17.20;63.40;17.90;101226.00;;;;5004418;28;20182;-44
2023/03/20 09:23:41;;;;;;;3.13;2.00;;;17.20;63.80;18.00;101226.00;;;;5003065;28;20194;-45
2023/03/20 09:26:07;;;;;;;2.23;2.03;;;17.30;63.80;18.00;101218.00;;;;5006988;28;20204;-44
2023/03/20 09:28:32;;;;;;;2.27;2.10;;;17.30;63.80;18.10;101217.00;;;;5009885;28;20177;-44
2023/03/20 09:30:58;;;;;;;2.63;1.93;;;17.40;63.80;18.10;101223.00;;;;5007258;28;20256;-44
2023/03/20 09:33:24;;;;;;;2.80;2.00;;;17.40;63.70;18.10;101217.00;;;;5003897;28;20205;-44
2023/03/20 09:35:50;;;;;;;2.10;1.90;;;17.50;64.00;18.20;101221.00;;;;5001953;28;20176;-45
2023/03/20 09:38:16;;;;;;;1.90;1.80;;;17.50;63.90;18.20;101213.00;;;;5003163;28;20229;-44
2023/03/20 09:40:55;;;;;;;1.83;1.73;;;17.50;63.70;18.20;101216.00;;;;5002728;28;20202;-44
2023/03/20 09:43:59;;;;;;;3.63;2.10;;;17.60;63.90;18.30;101223.00;;;;5004031;28;20837;-45
2023/03/20 09:46:57;;;;;;;1.70;1.60;;;17.60;63.90;18.30;101213.00;;;;5008420;28;20181;-44
2023/03/20 09:49:58;;;;;;;2.63;1.90;;;17.60;63.70;18.30;101212.00;;;;5006746;28;20195;-44
2023/03/20 09:52:47;;;;;;;2.73;1.80;;;17.70;63.70;18.30;101198.00;;;;5004517;28;20197;-44
2023/03/20 09:55:16;;;;;;;2.37;1.90;;;17.70;63.60;18.40;101218.00;;;;5003340;28;20245;-44
2023/03/20 09:57:46;;;;;;;1.70;1.60;;;17.70;63.50;18.40;101207.00;;;;5008056;28;20191;-43
2023/03/20 10:00:21;;;;;;;2.37;1.80;;;17.70;63.50;18.40;101216.00;;;;5007896;28;20269;-43
2023/03/20 10:03:05;;;;;;;1.87;1.77;;;17.70;63.50;18.40;101182.00;;;;5008576;28;20170;-44
2023/03/20 10:05:34;;;;;;;3.43;1.90;;;17.70;63.50;18.20;101211.00;;;;5008450;28;20190;-44
2023/03/20 10:08:02;;;;;;;2.90;1.90;;;17.70;63.40;18.50;101201.00;;;;5007916;28;20183;-43
2023/03/20 10:10:52;;;;;;;14.57;2.30;;;17.80;63.60;18.50;101211.00;;;;5007523;28;20700;-46
2023/03/20 10:13:36;;;;;;;3.53;2.10;;;17.80;64.60;18.50;101218.00;;;;5008660;28;20661;-46
2023/03/20 10:17:01;;;;;;;2.33;2.10;;;17.70;64.10;18.60;101225.00;;;;5009698;28;20277;-47
2023/03/20 10:19:55;;;;;;;3.47;1.90;;;17.80;64.00;18.60;101212.00;;;;5007968;28;20213;-45
2023/03/20 10:22:53;;;;;;;2.97;1.90;;;17.80;63.80;18.60;101219.00;;;;5007794;28;20274;-44
2023/03/20 10:25:33;;;;;;;2.70;1.90;;;17.80;63.90;18.60;101220.00;;;;5008787;28;20207;-46
2023/03/20 10:28:02;;;;;;;4.60;1.80;;;17.80;64.10;18.60;101214.00;;;;5008111;28;20197;-44
2023/03/20 10:30:34;;;;;;;7.27;1.90;;;17.80;63.90;18.70;101213.00;;;;5007964;28;20199;-46
2023/03/20 10:33:25;;;;;;;4.10;2.10;;;17.80;63.80;18.70;101222.00;;;;5009129;28;20174;-46
2023/03/20 10:36:24;;;;;;;5.80;2.03;;;17.90;63.70;18.70;101211.00;;;;4992762;28;20178;-45
2023/03/20 10:39:31;;;;;;;3.00;1.90;;;17.90;63.80;18.70;101213.00;;;;5008813;28;20633;-45
2023/03/20 10:42:00;;;;;;;4.13;1.80;;;17.80;63.60;18.70;101207.00;;;;5007745;28;20282;-45
2023/03/20 10:44:51;;;;;;;3.17;1.70;;;17.90;63.70;18.70;101209.00;;;;5008289;28;20184;-46
2023/03/20 10:47:18;;;;;;;7.17;2.23;;;17.90;63.60;18.70;101203.00;;;;5007903;28;20266;-45
2023/03/20 10:49:57;;;;;;;7.57;2.00;;;17.90;64.30;18.80;101206.00;;;;5007594;28;20747;-46
2023/03/20 10:52:32;;;;;;;3.13;1.97;;;17.90;63.80;18.80;101192.00;;;;5007827;28;20592;-46
2023/03/20 10:55:02;;;;;;;5.97;2.10;;;17.90;63.70;18.80;101198.00;;;;5008454;28;20169;-45
2023/03/20 10:57:31;;;;;;;2.50;1.80;;;17.90;63.70;18.80;101202.00;;;;5006878;28;20203;-45
2023/03/20 10:59:57;;;;;;;3.53;1.90;;;18.00;63.80;18.80;101199.00;;;;5008254;28;20194;-45
2023/03/20 11:02:27;;;;;;;4.63;1.80;;;17.90;63.70;18.80;101200.00;;;;5009011;28;20237;-46